Time;durP1;ratioP1;P1;durP2;ratioP2;P2;SDS_P1;SDS_P2;PMS_P1;PMS_P2;Temp;Humidity;BMP_temperature;BMP_pressure;BME280_temperature;BME280_humidity;BME280_pressure;Samples;Min_cycle;Max_cycle;Signal;HPM_P1;HPM_P2
2021/04/28 00:02:16;;;;;;;8.17;7.33;;;;;;;;;;5071606;28;20455;-54
2021/04/28 00:04:42;;;;;;;10.00;7.30;;;;;;;;;;5071360;28;20477;-52
2021/04/28 00:07:08;;;;;;;9.83;7.53;;;;;;;;;;5071113;28;20403;-51
2021/04/28 00:09:34;;;;;;;12.70;7.67;;;;;;;;;;5071037;28;20826;-52
2021/04/28 00:12:02;;;;;;;8.30;7.47;;;;;;;;;;5071386;28;20397;-52
2021/04/28 00:14:29;;;;;;;11.90;7.43;;;;;;;;;;5071365;28;20397;-52
2021/04/28 00:16:55;;;;;;;10.13;7.20;;;;;;;;;;5071166;28;20456;-51
2021/04/28 00:19:21;;;;;;;7.53;6.63;;;;;;;;;;5070889;28;20438;-51
2021/04/28 00:21:47;;;;;;;8.60;7.13;;;;;;;;;;5071123;28;20764;-52
2021/04/28 00:24:13;;;;;;;9.33;7.60;;;;;;;;;;5070993;28;20401;-52
2021/04/28 00:26:39;;;;;;;9.20;7.43;;;;;;;;;;5071091;28;20401;-52
2021/04/28 00:29:05;;;;;;;12.32;7.35;;;;;;;;;;5070784;28;20944;-52
2021/04/28 00:31:32;;;;;;;7.73;6.90;;;;;;;;;;5070958;28;20182;-51
2021/04/28 00:33:58;;;;;;;10.63;7.10;;;;;;;;;;5071064;28;20409;-53
2021/04/28 00:36:24;;;;;;;8.57;7.70;;;;;;;;;;5070950;28;20407;-52
2021/04/28 00:38:50;;;;;;;10.90;7.63;;;;;;;;;;5070553;28;20582;-52
2021/04/28 00:41:16;;;;;;;17.23;9.03;;;;;;;;;;5071004;28;20404;-52
2021/04/28 00:43:42;;;;;;;14.10;7.87;;;;;;;;;;5070912;28;20401;-54
2021/04/28 00:46:08;;;;;;;11.27;8.00;;;;;;;;;;5070826;28;20452;-52
2021/04/28 00:48:35;;;;;;;13.60;8.07;;;;;;;;;;5070724;28;20505;-51
2021/04/28 00:51:01;;;;;;;10.80;8.30;;;;;;;;;;5070834;28;20185;-52
2021/04/28 00:53:27;;;;;;;11.77;8.65;;;;;;;;;;5070762;28;20392;-51
2021/04/28 00:55:54;;;;;;;8.80;7.90;;;;;;;;;;5070924;28;20642;-51
2021/04/28 00:58:21;;;;;;;12.00;8.50;;;;;;;;;;5070762;28;20419;-52
2021/04/28 01:00:49;;;;;;;11.57;8.50;;;;;;;;;;5070342;28;20455;-51
2021/04/28 01:03:15;;;;;;;10.60;9.03;;;;;;;;;;5070314;28;20181;-51
2021/04/28 01:05:41;;;;;;;8.97;8.07;;;;;;;;;;5070367;28;20454;-51
2021/04/28 01:08:07;;;;;;;13.50;7.77;;;;;;;;;;5070709;28;20825;-51
2021/04/28 01:10:35;;;;;;;15.10;8.77;;;;;;;;;;5070676;28;20436;-51
2021/04/28 01:13:01;;;;;;;18.10;8.07;;;;;;;;;;5070904;28;20408;-52
2021/04/28 01:15:29;;;;;;;10.23;8.77;;;;;;;;;;5070590;28;20914;-52
2021/04/28 01:17:56;;;;;;;16.50;9.70;;;;;;;;;;5070537;28;20670;-52
2021/04/28 01:20:24;;;;;;;10.85;8.80;;;;;;;;;;5072718;28;20397;-51
2021/04/28 01:22:50;;;;;;;9.25;8.32;;;;;;;;;;5074641;28;20170;-51
2021/04/28 01:25:18;;;;;;;9.50;8.45;;;;;;;;;;5074542;28;20189;-51
2021/04/28 01:27:47;;;;;;;14.48;9.68;;;;;;;;;;5074625;28;20182;-51
2021/04/28 01:30:14;;;;;;;11.85;8.90;;;;;;;;;;5074236;28;20175;-52
2021/04/28 01:32:42;;;;;;;12.30;8.73;;;;;;;;;;5074563;28;20173;-53
2021/04/28 01:35:09;;;;;;;15.75;8.85;;;;;;;;;;5074308;28;20163;-52
2021/04/28 01:37:36;;;;;;;10.40;9.20;;;;;;;;;;5074154;28;20197;-53
2021/04/28 01:40:03;;;;;;;16.73;9.93;;;;;;;;;;5074026;28;20166;-53
2021/04/28 01:42:30;;;;;;;14.38;8.90;;;;;;;;;;5074256;28;20440;-55
2021/04/28 01:44:56;;;;;;;9.35;8.15;;;;;;;;;;5074190;28;20239;-54
2021/04/28 01:47:22;;;;;;;13.00;9.10;;;;;;;;;;5073946;28;20194;-52
2021/04/28 01:49:49;;;;;;;11.73;10.48;;;;;;;;;;5073872;28;20162;-51
2021/04/28 01:52:15;;;;;;;10.30;7.90;;;;;;;;;;5073946;28;20167;-51
2021/04/28 01:54:42;;;;;;;9.20;7.97;;;;;;;;;;5073964;28;20174;-51
2021/04/28 01:57:08;;;;;;;9.65;8.65;;;;;;;;;;5073810;28;20170;-52
2021/04/28 01:59:34;;;;;;;16.38;8.98;;;;;;;;;;5073620;28;20536;-51
2021/04/28 02:02:02;;;;;;;11.00;8.27;;;;;;;;;;5073735;28;20162;-53
2021/04/28 02:04:28;;;;;;;9.80;8.65;;;;;;;;;;5073815;28;20189;-51
2021/04/28 02:06:54;;;;;;;10.50;8.20;;;;;;;;;;5073642;28;20207;-52
2021/04/28 02:09:21;;;;;;;11.80;9.25;;;;;;;;;;5073430;28;20870;-51
2021/04/28 02:11:46;;;;;;;10.02;8.07;;;;;;;;;;5073755;28;20170;-52
2021/04/28 02:14:14;;;;;;;11.93;9.10;;;;;;;;;;5073646;28;20173;-51
2021/04/28 02:16:41;;;;;;;10.05;8.73;;;;;;;;;;5073616;28;20400;-51
2021/04/28 02:19:08;;;;;;;12.60;9.40;;;;;;;;;;5073147;28;20686;-54
2021/04/28 02:21:37;;;;;;;13.35;8.85;;;;;;;;;;5073535;28;20567;-51
2021/04/28 02:24:06;;;;;;;13.80;9.05;;;;;;;;;;5073295;28;20170;-54
2021/04/28 02:26:32;;;;;;;11.75;9.70;;;;;;;;;;5073547;28;20639;-52
2021/04/28 02:28:58;;;;;;;9.97;8.70;;;;;;;;;;5073053;28;20212;-53
2021/04/28 02:31:24;;;;;;;11.50;9.15;;;;;;;;;;5073227;28;20389;-53
2021/04/28 02:33:50;;;;;;;12.07;9.20;;;;;;;;;;5073299;28;20560;-51
2021/04/28 02:36:16;;;;;;;11.13;9.70;;;;;;;;;;5073332;28;20462;-51
2021/04/28 02:38:44;;;;;;;12.18;10.02;;;;;;;;;;5072723;28;20444;-54
2021/04/28 02:41:11;;;;;;;11.02;8.30;;;;;;;;;;5073249;28;20158;-52
2021/04/28 02:43:37;;;;;;;11.05;8.32;;;;;;;;;;5073102;28;20189;-53
2021/04/28 02:46:07;;;;;;;11.07;9.88;;;;;;;;;;5072966;28;20186;-52
2021/04/28 02:48:34;;;;;;;10.30;9.23;;;;;;;;;;5072913;28;20717;-51
2021/04/28 02:51:00;;;;;;;18.33;9.68;;;;;;;;;;5072971;28;20207;-51
2021/04/28 02:53:28;;;;;;;14.70;10.57;;;;;;;;;;5073323;28;20170;-51
2021/04/28 02:55:55;;;;;;;13.88;10.00;;;;;;;;;;5073208;28;20660;-52
2021/04/28 02:58:21;;;;;;;11.35;10.25;;;;;;;;;;5073046;28;20202;-54
2021/04/28 03:00:47;;;;;;;14.98;10.00;;;;;;;;;;5072764;28;20584;-54
2021/04/28 03:03:14;;;;;;;13.73;10.63;;;;;;;;;;5072956;28;20166;-55
2021/04/28 03:05:40;;;;;;;14.95;10.70;;;;;;;;;;5072803;28;20200;-51
2021/04/28 03:08:07;;;;;;;14.82;10.60;;;;;;;;;;5072813;28;20192;-51
2021/04/28 03:10:33;;;;;;;11.05;9.95;;;;;;;;;;5072427;28;20170;-51
2021/04/28 03:12:59;;;;;;;11.88;9.18;;;;;;;;;;5072680;28;20175;-51
2021/04/28 03:15:26;;;;;;;10.90;9.90;;;;;;;;;;5072581;28;20255;-54
2021/04/28 03:17:53;;;;;;;10.57;9.48;;;;;;;;;;5072401;28;20198;-55
2021/04/28 03:20:22;;;;;;;12.68;9.65;;;;;;;;;;5072297;28;20181;-51
2021/04/28 03:22:48;;;;;;;12.98;9.07;;;;;;;;;;5072403;28;20225;-51
2021/04/28 03:25:15;;;;;;;12.55;9.60;;;;;;;;;;5072260;28;20280;-51
2021/04/28 03:27:41;;;;;;;11.10;10.00;;;;;;;;;;5072187;28;20190;-52
2021/04/28 03:30:09;;;;;;;11.90;8.70;;;;;;;;;;5072321;28;20181;-51
2021/04/28 03:32:35;;;;;;;11.52;10.48;;;;;;;;;;5072131;28;20401;-51
2021/04/28 03:35:01;;;;;;;13.97;11.33;;;;;;;;;;5072189;28;20170;-51
2021/04/28 03:37:27;;;;;;;14.97;11.10;;;;;;;;;;5071894;28;20493;-52
2021/04/28 03:39:53;;;;;;;11.57;10.23;;;;;;;;;;5071738;28;20419;-52
2021/04/28 03:42:22;;;;;;;14.70;11.68;;;;;;;;;;5071383;28;20177;-51
2021/04/28 03:44:48;;;;;;;17.60;10.82;;;;;;;;;;5071810;28;20192;-52
2021/04/28 03:47:14;;;;;;;16.23;10.55;;;;;;;;;;5071738;28;20185;-51
2021/04/28 03:49:40;;;;;;;15.70;10.50;;;;;;;;;;5071470;28;20645;-52
2021/04/28 03:52:06;;;;;;;19.10;11.37;;;;;;;;;;5071790;28;20757;-52
2021/04/28 03:54:32;;;;;;;12.20;9.77;;;;;;;;;;5071559;28;20405;-52
2021/04/28 03:56:58;;;;;;;10.57;9.43;;;;;;;;;;5071738;28;20908;-53
2021/04/28 03:59:24;;;;;;;12.53;9.47;;;;;;;;;;5071201;28;20537;-52
2021/04/28 04:01:53;;;;;;;24.97;10.07;;;;;;;;;;5071588;28;20404;-51
2021/04/28 04:04:19;;;;;;;12.23;9.10;;;;;;;;;;5071343;28;20446;-51
2021/04/28 04:06:45;;;;;;;10.30;9.17;;;;;;;;;;5071492;28;20202;-51
2021/04/28 04:09:11;;;;;;;12.50;9.20;;;;;;;;;;5071046;28;20417;-51
2021/04/28 04:11:37;;;;;;;11.47;9.63;;;;;;;;;;5071400;28;20416;-53
2021/04/28 04:14:03;;;;;;;11.70;9.30;;;;;;;;;;5071493;28;20400;-52
2021/04/28 04:16:29;;;;;;;12.45;8.80;;;;;;;;;;5071273;28;20571;-51
2021/04/28 04:18:55;;;;;;;13.00;9.00;;;;;;;;;;5070904;28;20243;-52
2021/04/28 04:21:21;;;;;;;12.32;10.20;;;;;;;;;;5071197;28;20174;-51
2021/04/28 04:23:47;;;;;;;12.02;9.85;;;;;;;;;;5071228;28;20715;-51
2021/04/28 04:26:14;;;;;;;14.48;10.27;;;;;;;;;;5070992;28;20198;-52
2021/04/28 04:28:40;;;;;;;15.63;10.63;;;;;;;;;;5070810;28;20190;-53
2021/04/28 04:31:06;;;;;;;18.20;11.20;;;;;;;;;;5071100;28;20170;-51
2021/04/28 04:33:32;;;;;;;14.20;11.70;;;;;;;;;;5071021;28;20396;-52
2021/04/28 04:35:58;;;;;;;17.80;11.80;;;;;;;;;;5070946;28;20401;-52
2021/04/28 04:38:24;;;;;;;18.30;12.07;;;;;;;;;;5070738;28;20527;-51
2021/04/28 04:40:50;;;;;;;17.50;13.00;;;;;;;;;;5070709;28;20408;-52
2021/04/28 04:43:16;;;;;;;15.93;11.88;;;;;;;;;;5070918;28;20487;-52
2021/04/28 04:45:42;;;;;;;15.47;12.90;;;;;;;;;;5070877;28;20307;-52
2021/04/28 04:48:09;;;;;;;13.50;11.63;;;;;;;;;;5070513;28;20469;-52
2021/04/28 04:50:35;;;;;;;19.55;14.90;;;;;;;;;;5070603;28;20921;-53
2021/04/28 04:53:03;;;;;;;15.85;13.13;;;;;;;;;;5070672;28;20170;-54
2021/04/28 04:55:29;;;;;;;17.95;11.43;;;;;;;;;;5070062;28;20708;-51
2021/04/28 04:57:55;;;;;;;15.85;11.98;;;;;;;;;;5069429;28;20205;-51
2021/04/28 05:00:21;;;;;;;14.50;10.87;;;;;;;;;;5070516;28;20582;-51
2021/04/28 05:02:47;;;;;;;15.50;11.88;;;;;;;;;;5070717;28;20412;-51
2021/04/28 05:05:16;;;;;;;19.33;11.00;;;;;;;;;;5070717;28;20254;-52
2021/04/28 05:07:43;;;;;;;20.98;10.15;;;;;;;;;;5069393;28;20817;-52
2021/04/28 05:10:10;;;;;;;17.25;10.95;;;;;;;;;;5070421;28;20235;-51
2021/04/28 05:12:36;;;;;;;18.77;11.55;;;;;;;;;;5070707;28;20855;-51
2021/04/28 05:15:02;;;;;;;17.63;10.50;;;;;;;;;;5070664;28;20282;-51
2021/04/28 05:17:28;;;;;;;13.55;11.52;;;;;;;;;;5070620;28;20424;-51
2021/04/28 05:19:55;;;;;;;14.80;10.80;;;;;;;;;;5070422;28;20295;-51
2021/04/28 05:22:23;;;;;;;17.90;11.13;;;;;;;;;;5070841;28;20488;-52
2021/04/28 05:24:49;;;;;;;16.92;11.55;;;;;;;;;;5070773;28;20186;-51
2021/04/28 05:27:15;;;;;;;19.52;11.32;;;;;;;;;;5070615;28;20288;-51
2021/04/28 05:29:42;;;;;;;22.90;12.33;;;;;;;;;;5070340;28;20211;-51
2021/04/28 05:32:09;;;;;;;15.20;11.40;;;;;;;;;;5070561;28;20393;-51
2021/04/28 05:34:36;;;;;;;19.95;13.80;;;;;;;;;;5070292;28;20177;-51
2021/04/28 05:37:02;;;;;;;16.27;12.75;;;;;;;;;;5070275;28;20170;-52
2021/04/28 05:39:28;;;;;;;16.67;12.32;;;;;;;;;;5068783;28;20681;-52
2021/04/28 05:41:54;;;;;;;24.73;13.07;;;;;;;;;;5070326;28;20244;-51
2021/04/28 05:44:20;;;;;;;16.80;11.73;;;;;;;;;;5070256;28;20899;-52
2021/04/28 05:46:47;;;;;;;14.13;11.73;;;;;;;;;;5070053;28;20400;-52
2021/04/28 05:49:14;;;;;;;14.05;11.95;;;;;;;;;;5069962;28;20181;-51
2021/04/28 05:51:40;;;;;;;18.00;12.70;;;;;;;;;;5068919;28;20174;-52
2021/04/28 05:54:17;;;;;;;14.90;11.80;;;;;;;;;;5069572;28;20241;-54
2021/04/28 05:56:43;;;;;;;15.52;11.48;;;;;;;;;;5070069;28;20164;-51
2021/04/28 05:59:09;;;;;;;20.20;13.10;;;;;;;;;;5069806;28;20728;-52
2021/04/28 06:01:35;;;;;;;28.10;13.30;;;;;;;;;;5069918;28;20397;-54
2021/04/28 06:04:04;;;;;;;15.35;11.98;;;;;;;;;;5069662;28;20191;-54
2021/04/28 06:06:30;;;;;;;16.48;11.80;;;;;;;;;;5072424;28;20198;-52
2021/04/28 06:08:56;;;;;;;19.15;12.27;;;;;;;;;;5073834;28;20557;-51
2021/04/28 06:11:22;;;;;;;18.70;12.00;;;;;;;;;;5073914;28;20189;-52
2021/04/28 06:13:48;;;;;;;19.10;13.30;;;;;;;;;;5073596;28;20405;-53
2021/04/28 06:16:15;;;;;;;17.85;13.20;;;;;;;;;;5073720;28;20646;-53
2021/04/28 06:18:41;;;;;;;16.83;12.43;;;;;;;;;;5073300;28;20193;-52
2021/04/28 06:21:07;;;;;;;17.47;12.47;;;;;;;;;;5073649;28;20401;-51
2021/04/28 06:23:35;;;;;;;17.03;11.80;;;;;;;;;;5072569;28;20890;-52
2021/04/28 06:26:01;;;;;;;25.17;13.83;;;;;;;;;;5073447;28;21023;-51
2021/04/28 06:28:28;;;;;;;20.33;13.20;;;;;;;;;;5072852;28;20502;-52
2021/04/28 06:30:54;;;;;;;22.50;13.03;;;;;;;;;;5071019;28;20824;-52
2021/04/28 06:33:21;;;;;;;18.80;12.63;;;;;;;;;;5071994;28;20502;-51
2021/04/28 06:35:47;;;;;;;16.60;12.20;;;;;;;;;;5073191;28;20754;-52
2021/04/28 06:38:13;;;;;;;15.90;12.20;;;;;;;;;;5072993;28;20451;-52
2021/04/28 06:40:39;;;;;;;22.07;12.50;;;;;;;;;;5072964;28;20811;-54
2021/04/28 06:43:05;;;;;;;14.23;11.43;;;;;;;;;;5073249;28;20415;-51
2021/04/28 06:45:32;;;;;;;17.57;13.20;;;;;;;;;;5072911;28;20463;-51
2021/04/28 06:47:59;;;;;;;23.30;13.03;;;;;;;;;;5073195;28;20433;-52
2021/04/28 06:50:25;;;;;;;15.53;11.87;;;;;;;;;;5072801;28;20763;-52
2021/04/28 06:52:51;;;;;;;15.07;12.40;;;;;;;;;;5071188;28;20481;-52
2021/04/28 06:55:18;;;;;;;14.90;11.60;;;;;;;;;;5073096;28;20442;-52
2021/04/28 06:57:51;;;;;;;13.23;11.27;;;;;;;;;;5073024;28;20423;-56
2021/04/28 07:00:19;;;;;;;19.50;11.40;;;;;;;;;;5072846;28;20422;-52
2021/04/28 07:02:45;;;;;;;19.40;12.97;;;;;;;;;;5073131;28;20415;-56
2021/04/28 07:05:11;;;;;;;14.40;11.93;;;;;;;;;;5072690;28;20460;-54
2021/04/28 07:07:37;;;;;;;16.90;11.97;;;;;;;;;;5072675;28;20420;-55
2021/04/28 07:10:06;;;;;;;13.90;11.90;;;;;;;;;;5070495;28;20406;-54
2021/04/28 07:12:32;;;;;;;16.57;12.20;;;;;;;;;;5072570;28;20401;-52
2021/04/28 07:14:58;;;;;;;19.13;11.77;;;;;;;;;;5072492;28;20401;-52
2021/04/28 07:17:24;;;;;;;18.23;11.50;;;;;;;;;;5071322;28;20496;-52
2021/04/28 07:19:50;;;;;;;12.83;11.40;;;;;;;;;;5072189;28;20413;-52
2021/04/28 07:22:16;;;;;;;14.27;10.43;;;;;;;;;;5065721;28;20422;-54
2021/04/28 07:24:42;;;;;;;17.30;11.93;;;;;;;;;;5072189;28;20551;-53
2021/04/28 07:27:08;;;;;;;11.83;10.23;;;;;;;;;;5071982;28;20406;-53
2021/04/28 07:29:37;;;;;;;12.13;10.73;;;;;;;;;;5071927;28;20408;-52
2021/04/28 07:32:03;;;;;;;12.70;10.13;;;;;;;;;;5072194;28;20895;-52
2021/04/28 07:34:30;;;;;;;15.73;10.27;;;;;;;;;;5072085;28;20954;-52
2021/04/28 07:36:56;;;;;;;14.07;10.57;;;;;;;;;;5071949;28;20399;-53
2021/04/28 07:39:22;;;;;;;14.17;10.67;;;;;;;;;;5071422;28;20489;-53
2021/04/28 07:41:48;;;;;;;15.90;10.87;;;;;;;;;;5071944;28;20375;-54
2021/04/28 07:44:15;;;;;;;13.13;9.80;;;;;;;;;;5071715;28;20383;-53
2021/04/28 07:46:43;;;;;;;14.83;9.30;;;;;;;;;;5071907;28;20426;-53
2021/04/28 07:49:09;;;;;;;15.20;10.10;;;;;;;;;;5071310;28;20497;-53
2021/04/28 07:51:36;;;;;;;16.43;10.60;;;;;;;;;;5071701;28;20436;-55
2021/04/28 07:54:02;;;;;;;12.97;9.67;;;;;;;;;;5071601;28;20462;-55
2021/04/28 07:56:29;;;;;;;12.70;9.77;;;;;;;;;;5071582;28;20408;-53
2021/04/28 07:58:56;;;;;;;11.03;9.73;;;;;;;;;;5071164;28;20432;-53
2021/04/28 08:01:22;;;;;;;14.33;9.23;;;;;;;;;;5071487;28;20405;-53
2021/04/28 08:03:48;;;;;;;13.70;9.70;;;;;;;;;;5071594;28;20411;-55
2021/04/28 08:15:24;;;;;;;14.63;8.23;;;;;;;;;;5056146;28;20403;-56
2021/04/28 08:17:50;;;;;;;8.40;7.70;;;;;;;;;;5071110;28;20455;-56
2021/04/28 08:20:16;;;;;;;8.47;7.60;;;;;;;;;;5070829;28;20445;-54
2021/04/28 08:22:43;;;;;;;10.47;8.67;;;;;;;;;;5071134;28;20555;-56
2021/04/28 08:25:10;;;;;;;13.83;7.70;;;;;;;;;;5071145;28;20447;-56
2021/04/28 08:27:36;;;;;;;7.87;7.07;;;;;;;;;;5070879;28;20771;-55
2021/04/28 08:30:07;;;;;;;8.40;7.43;;;;;;;;;;5070619;28;20408;-56
2021/04/28 08:32:33;;;;;;;9.87;8.87;;;;;;;;;;5070820;28;20858;-56
2021/04/28 08:34:59;;;;;;;8.67;7.70;;;;;;;;;;5070977;28;20408;-56
2021/04/28 08:37:25;;;;;;;18.67;8.33;;;;;;;;;;5070747;28;20416;-55
2021/04/28 08:39:51;;;;;;;10.33;7.00;;;;;;;;;;5070921;28;20404;-56
2021/04/28 08:42:17;;;;;;;8.10;7.00;;;;;;;;;;5071203;28;20400;-57
2021/04/28 08:44:44;;;;;;;9.00;7.43;;;;;;;;;;5071324;28;20466;-55
2021/04/28 08:47:10;;;;;;;12.27;7.63;;;;;;;;;;5069650;28;20401;-56
2021/04/28 08:49:36;;;;;;;8.50;7.03;;;;;;;;;;5068809;28;20487;-56
2021/04/28 08:52:02;;;;;;;9.27;6.77;;;;;;;;;;5069426;28;20404;-56
2021/04/28 08:54:28;;;;;;;6.40;5.80;;;;;;;;;;5070457;28;20498;-56
2021/04/28 08:56:56;;;;;;;7.90;7.10;;;;;;;;;;5070557;28;20865;-56
2021/04/28 08:59:22;;;;;;;7.47;6.90;;;;;;;;;;5070503;28;20419;-56
2021/04/28 09:01:48;;;;;;;8.33;7.53;;;;;;;;;;5070668;28;20408;-56
2021/04/28 09:04:18;;;;;;;7.13;6.37;;;;;;;;;;5070606;28;20400;-56
2021/04/28 09:06:44;;;;;;;8.83;7.07;;;;;;;;;;5070619;28;20396;-56
2021/04/28 09:09:10;;;;;;;8.47;7.13;;;;;;;;;;5070437;28;20460;-56
2021/04/28 09:11:39;;;;;;;7.63;6.93;;;;;;;;;;5070572;28;20890;-57
2021/04/28 09:14:06;;;;;;;9.93;7.10;;;;;;;;;;5070637;28;20400;-57
2021/04/28 09:16:32;;;;;;;8.57;7.67;;;;;;;;;;5070546;28;20756;-55
2021/04/28 09:18:58;;;;;;;9.30;6.77;;;;;;;;;;5070263;28;20810;-56
2021/04/28 09:21:43;;;;;;;8.80;7.53;;;;;;;;;;5070573;28;20898;-55
2021/04/28 09:24:19;;;;;;;8.33;7.43;;;;;;;;;;5070322;28;20443;-56
2021/04/28 09:26:45;;;;;;;10.53;7.77;;;;;;;;;;5070510;28;20431;-56
2021/04/28 09:29:16;;;;;;;8.47;7.70;;;;;;;;;;5069981;28;20420;-56
2021/04/28 09:31:53;;;;;;;10.83;6.90;;;;;;;;;;5070548;28;20392;-57
2021/04/28 09:34:24;;;;;;;8.27;7.57;;;;;;;;;;5070456;28;20452;-55
2021/04/28 09:36:59;;;;;;;11.30;7.30;;;;;;;;;;5069192;28;20786;-55
2021/04/28 09:39:25;;;;;;;8.13;7.33;;;;;;;;;;5069543;28;20454;-56
2021/04/28 09:41:53;;;;;;;8.00;7.20;;;;;;;;;;5073338;28;20404;-56
2021/04/28 09:44:20;;;;;;;8.33;7.10;;;;;;;;;;5074018;28;20396;-57
2021/04/28 09:46:56;;;;;;;8.10;7.30;;;;;;;;;;5074232;28;20427;-57
2021/04/28 09:49:22;;;;;;;8.23;7.43;;;;;;;;;;5073704;28;20424;-56
2021/04/28 09:51:53;;;;;;;8.10;7.40;;;;;;;;;;5074067;28;20411;-57
2021/04/28 09:54:19;;;;;;;10.57;8.43;;;;;;;;;;5073834;28;20404;-57
2021/04/28 09:56:45;;;;;;;8.77;7.97;;;;;;;;;;5074014;28;20487;-56
2021/04/28 09:59:11;;;;;;;8.43;7.03;;;;;;;;;;5073492;28;20947;-57
2021/04/28 10:01:40;;;;;;;13.87;7.30;;;;;;;;;;5073897;28;20408;-57
2021/04/28 10:04:08;;;;;;;9.47;7.60;;;;;;;;;;5072031;28;20417;-57
2021/04/28 10:06:46;;;;;;;7.37;6.63;;;;;;;;;;5072724;28;20475;-57
2021/04/28 10:09:24;;;;;;;7.80;7.10;;;;;;;;;;5073117;28;20465;-57
2021/04/28 10:11:50;;;;;;;12.97;8.07;;;;;;;;;;5073467;28;20404;-58
2021/04/28 10:14:16;;;;;;;9.50;7.40;;;;;;;;;;5073603;28;20454;-57
2021/04/28 10:16:43;;;;;;;8.47;7.57;;;;;;;;;;5073640;28;20457;-57
2021/04/28 10:19:10;;;;;;;8.63;7.80;;;;;;;;;;5073169;28;20456;-57
2021/04/28 10:21:37;;;;;;;10.03;7.90;;;;;;;;;;5072759;28;20423;-57
2021/04/28 10:24:03;;;;;;;10.97;7.40;;;;;;;;;;5073523;28;20427;-57
2021/04/28 10:26:30;;;;;;;8.30;7.60;;;;;;;;;;5073227;28;20955;-56
2021/04/28 10:28:58;;;;;;;9.27;8.40;;;;;;;;;;5072965;28;20503;-57
2021/04/28 10:31:24;;;;;;;8.17;7.47;;;;;;;;;;5073317;28;20407;-57
2021/04/28 10:33:50;;;;;;;9.63;8.63;;;;;;;;;;5055354;28;20408;-57
2021/04/28 10:36:16;;;;;;;11.43;7.60;;;;;;;;;;5073188;28;20408;-58
2021/04/28 10:38:42;;;;;;;9.17;8.27;;;;;;;;;;5072970;28;20448;-57
2021/04/28 10:41:28;;;;;;;8.30;7.60;;;;;;;;;;5073326;28;20427;-57
2021/04/28 10:43:54;;;;;;;10.93;8.30;;;;;;;;;;5073151;28;20405;-58
2021/04/28 10:46:22;;;;;;;9.90;8.47;;;;;;;;;;5072859;28;20997;-57
2021/04/28 10:48:48;;;;;;;8.60;7.70;;;;;;;;;;5072722;28;20504;-57
2021/04/28 10:51:33;;;;;;;9.13;8.33;;;;;;;;;;5072920;28;20404;-57
2021/04/28 10:54:21;;;;;;;10.13;8.50;;;;;;;;;;5072897;28;20483;-57
2021/04/28 10:57:14;;;;;;;9.83;6.90;;;;;;;;;;5072485;28;20428;-58
2021/04/28 10:59:43;;;;;;;8.47;7.60;;;;;;;;;;5067417;28;20422;-58
2021/04/28 11:02:09;;;;;;;8.57;7.87;;;;;;;;;;5052236;28;20471;-58
2021/04/28 11:04:36;;;;;;;7.90;7.10;;;;;;;;;;5052676;28;20405;-58
2021/04/28 11:07:02;;;;;;;7.90;7.20;;;;;;;;;;5052600;28;20433;-58
2021/04/28 11:09:29;;;;;;;8.13;7.33;;;;;;;;;;5052158;28;20421;-56
2021/04/28 11:11:56;;;;;;;8.87;7.10;;;;;;;;;;5052738;28;20885;-57
2021/04/28 11:14:24;;;;;;;10.80;7.13;;;;;;;;;;5052881;28;20403;-57
2021/04/28 11:16:51;;;;;;;7.73;6.73;;;;;;;;;;5052741;28;20505;-57
2021/04/28 11:19:19;;;;;;;9.90;7.87;;;;;;;;;;5052230;28;20501;-58
2021/04/28 11:21:45;;;;;;;9.10;8.10;;;;;;;;;;5052408;28;20575;-58
2021/04/28 11:24:12;;;;;;;10.23;8.30;;;;;;;;;;5052277;28;20381;-58
2021/04/28 11:26:49;;;;;;;8.20;7.50;;;;;;;;;;5052663;28;20398;-56
2021/04/28 11:29:16;;;;;;;10.40;8.30;;;;;;;;;;5051827;28;20416;-58
2021/04/28 11:31:46;;;;;;;8.27;7.57;;;;;;;;;;5052263;28;20909;-57
2021/04/28 11:34:24;;;;;;;7.50;6.80;;;;;;;;;;5051983;28;20418;-57
2021/04/28 11:36:54;;;;;;;8.33;7.50;;;;;;;;;;5051971;28;20432;-57
2021/04/28 11:39:40;;;;;;;9.20;7.47;;;;;;;;;;5051854;28;20429;-58
2021/04/28 11:42:09;;;;;;;8.10;7.33;;;;;;;;;;5051668;28;20397;-57
2021/04/28 11:44:35;;;;;;;8.10;7.30;;;;;;;;;;5051842;28;20429;-57
2021/04/28 11:47:12;;;;;;;8.00;7.30;;;;;;;;;;5051860;28;20454;-57
2021/04/28 11:49:41;;;;;;;8.70;7.87;;;;;;;;;;5051783;28;20436;-56
2021/04/28 11:52:08;;;;;;;9.13;7.80;;;;;;;;;;5051783;28;20402;-56
2021/04/28 11:54:34;;;;;;;8.73;7.87;;;;;;;;;;5051685;28;20405;-58
2021/04/28 11:57:00;;;;;;;7.60;6.90;;;;;;;;;;5051659;28;20908;-57
2021/04/28 11:59:31;;;;;;;9.07;7.80;;;;;;;;;;5051423;28;20931;-58
2021/04/28 12:02:00;;;;;;;9.20;8.30;;;;;;;;;;5051674;28;20397;-57
2021/04/28 12:04:32;;;;;;;12.30;8.10;;;;;;;;;;5051207;28;20394;-57
2021/04/28 12:06:58;;;;;;;8.43;7.67;;;;;;;;;;5051541;28;20404;-57
2021/04/28 12:09:34;;;;;;;8.27;7.60;;;;;;;;;;5051354;28;20456;-58
2021/04/28 12:12:19;;;;;;;8.57;7.70;;;;;;;;;;5051647;28;20427;-58
2021/04/28 12:14:49;;;;;;;7.70;7.00;;;;;;;;;;5051608;28;20511;-57
2021/04/28 12:17:20;;;;;;;8.83;7.50;;;;;;;;;;5051457;28;20412;-58
2021/04/28 12:19:46;;;;;;;8.30;7.27;;;;;;;;;;5051157;28;20433;-57
2021/04/28 12:22:12;;;;;;;10.20;9.30;;;;;;;;;;5051094;28;20853;-58
2021/04/28 12:24:40;;;;;;;8.77;7.87;;;;;;;;;;5051203;28;20401;-58
2021/04/28 12:27:12;;;;;;;8.80;7.90;;;;;;;;;;5051246;28;20480;-58
2021/04/28 12:29:39;;;;;;;7.10;6.20;;;;;;;;;;5050824;28;20587;-59
2021/04/28 12:32:07;;;;;;;8.33;7.53;;;;;;;;;;5051210;28;20404;-58
2021/04/28 12:34:33;;;;;;;9.40;8.40;;;;;;;;;;5050834;28;20489;-58
2021/04/28 12:37:09;;;;;;;8.57;7.77;;;;;;;;;;5050917;28;20886;-58
2021/04/28 12:39:35;;;;;;;10.73;7.07;;;;;;;;;;5057417;28;20911;-58
2021/04/28 12:42:02;;;;;;;7.67;6.93;;;;;;;;;;5070923;28;20446;-57
2021/04/28 12:44:28;;;;;;;10.57;7.17;;;;;;;;;;5070812;28;20450;-58
2021/04/28 12:46:55;;;;;;;9.47;7.30;;;;;;;;;;5070589;28;20392;-58
2021/04/28 12:49:24;;;;;;;8.40;7.60;;;;;;;;;;5070494;28;20412;-58
2021/04/28 12:51:52;;;;;;;9.70;7.00;;;;;;;;;;5070694;28;20397;-58
2021/04/28 12:54:29;;;;;;;8.67;7.83;;;;;;;;;;5070587;28;20428;-58
2021/04/28 12:56:57;;;;;;;8.33;7.43;;;;;;;;;;5070862;28;20412;-58
2021/04/28 12:59:23;;;;;;;7.90;7.13;;;;;;;;;;5070269;28;20968;-58
2021/04/28 13:02:06;;;;;;;9.13;8.33;;;;;;;;;;5070690;28;20442;-58
2021/04/28 13:04:33;;;;;;;10.63;8.37;;;;;;;;;;5070651;28;20420;-57
2021/04/28 13:07:13;;;;;;;8.17;7.47;;;;;;;;;;5070658;28;20423;-58
2021/04/28 13:09:40;;;;;;;11.23;7.90;;;;;;;;;;5070234;28;20407;-58
2021/04/28 13:12:07;;;;;;;7.33;6.83;;;;;;;;;;5070490;28;20392;-57
2021/04/28 13:14:50;;;;;;;9.20;7.80;;;;;;;;;;5069879;28;20453;-56
2021/04/28 13:17:16;;;;;;;12.53;7.53;;;;;;;;;;5070619;28;20400;-58
2021/04/28 13:19:42;;;;;;;11.03;7.90;;;;;;;;;;5070261;28;20450;-57
2021/04/28 13:22:12;;;;;;;10.90;7.40;;;;;;;;;;5071116;28;20400;-57
2021/04/28 13:24:39;;;;;;;9.00;7.23;;;;;;;;;;5070533;28;20404;-57
2021/04/28 13:27:05;;;;;;;9.20;7.63;;;;;;;;;;5070424;28;20486;-56
2021/04/28 13:29:51;;;;;;;7.97;6.73;;;;;;;;;;5070441;28;20424;-57
2021/04/28 13:32:34;;;;;;;8.60;7.77;;;;;;;;;;5070719;28;20772;-56
2021/04/28 13:35:18;;;;;;;8.00;7.30;;;;;;;;;;5070378;28;20486;-57
2021/04/28 13:37:47;;;;;;;9.80;8.80;;;;;;;;;;5070306;28;20440;-57
2021/04/28 13:40:20;;;;;;;8.93;8.07;;;;;;;;;;5070080;28;20475;-57
2021/04/28 13:42:46;;;;;;;8.53;7.73;;;;;;;;;;5070322;28;20476;-57
2021/04/28 13:45:12;;;;;;;9.70;8.17;;;;;;;;;;5070278;28;20400;-57
2021/04/28 13:47:38;;;;;;;8.17;7.30;;;;;;;;;;5070521;28;20802;-57
2021/04/28 13:50:05;;;;;;;9.83;7.97;;;;;;;;;;5070146;28;20475;-57
2021/04/28 13:52:31;;;;;;;7.90;7.20;;;;;;;;;;5070204;28;20407;-57
2021/04/28 13:54:57;;;;;;;9.07;7.57;;;;;;;;;;5069991;28;20959;-56
2021/04/28 13:57:23;;;;;;;7.00;6.30;;;;;;;;;;5069978;28;20424;-56
2021/04/28 13:59:49;;;;;;;18.03;9.10;;;;;;;;;;5070292;28;20401;-57
2021/04/28 14:02:15;;;;;;;9.50;7.63;;;;;;;;;;5069995;28;20892;-56
2021/04/28 14:04:41;;;;;;;8.60;7.80;;;;;;;;;;5070060;28;20400;-57
2021/04/28 14:07:07;;;;;;;7.40;6.70;;;;;;;;;;5069947;28;20396;-56
2021/04/28 14:09:33;;;;;;;8.07;7.30;;;;;;;;;;5069794;28;20260;-56
2021/04/28 14:11:58;;;;;;;7.63;7.00;;;;;;;;;;5069908;28;20458;-56
2021/04/28 14:14:24;;;;;;;9.17;7.40;;;;;;;;;;5070412;28;20404;-56
2021/04/28 14:16:51;;;;;;;8.90;8.00;;;;;;;;;;5069810;28;20539;-56
2021/04/28 14:19:17;;;;;;;11.53;9.03;;;;;;;;;;5069670;28;20412;-56
2021/04/28 14:21:43;;;;;;;8.67;7.77;;;;;;;;;;5069942;28;20397;-56
2021/04/28 14:24:10;;;;;;;9.93;7.70;;;;;;;;;;5069718;28;20393;-56
2021/04/28 14:26:36;;;;;;;8.80;7.90;;;;;;;;;;5070979;28;20404;-56
2021/04/28 14:29:01;;;;;;;8.90;8.03;;;;;;;;;;5073014;28;20798;-57
2021/04/28 14:31:27;;;;;;;10.03;8.90;;;;;;;;;;5073424;28;20404;-56
2021/04/28 14:33:53;;;;;;;17.20;8.63;;;;;;;;;;5073260;28;20461;-56
2021/04/28 14:36:20;;;;;;;8.67;7.80;;;;;;;;;;5073282;28;20483;-56
2021/04/28 14:38:45;;;;;;;11.23;8.17;;;;;;;;;;5072559;28;20478;-57
2021/04/28 14:41:11;;;;;;;10.33;8.20;;;;;;;;;;5073136;28;20432;-57
2021/04/28 14:43:38;;;;;;;11.40;8.10;;;;;;;;;;5072946;28;20401;-56